sensor_id;sensor_type;location;lat;lon;timestamp;pressure;altitude;pressure_sealevel;temperature;humidity
50268;BME280;36153;50.960;6.220;2023-08-06T00:02:16;99389.81;;;20.40;60.59
50268;BME280;36153;50.960;6.220;2023-08-06T00:05:16;99393.53;;;20.36;60.71
50268;BME280;36153;50.960;6.220;2023-08-06T00:08:18;99390.41;;;20.27;60.75
50268;BME280;36153;50.960;6.220;2023-08-06T00:11:18;99391.53;;;20.22;61.03
50268;BME280;36153;50.960;6.220;2023-08-06T00:14:18;99396.13;;;20.18;60.86
50268;BME280;36153;50.960;6.220;2023-08-06T00:17:19;99385.69;;;20.15;60.90
50268;BME280;36153;50.960;6.220;2023-08-06T00:20:20;99392.53;;;20.19;61.14
50268;BME280;36153;50.960;6.220;2023-08-06T00:23:20;99388.72;;;20.26;61.27
50268;BME280;36153;50.960;6.220;2023-08-06T00:26:22;99384.69;;;20.37;61.15
50268;BME280;36153;50.960;6.220;2023-08-06T00:29:22;99384.38;;;20.43;60.83
50268;BME280;36153;50.960;6.220;2023-08-06T00:32:23;99381.81;;;20.41;60.15
50268;BME280;36153;50.960;6.220;2023-08-06T00:35:24;99385.00;;;20.31;60.25
50268;BME280;36153;50.960;6.220;2023-08-06T00:38:24;99381.25;;;20.16;60.64
50268;BME280;36153;50.960;6.220;2023-08-06T00:41:25;99389.53;;;20.08;61.07
50268;BME280;36153;50.960;6.220;2023-08-06T00:44:25;99382.97;;;19.98;61.64
50268;BME280;36153;50.960;6.220;2023-08-06T00:47:25;99382.44;;;19.89;61.83
50268;BME280;36153;50.960;6.220;2023-08-06T00:50:26;99384.19;;;19.90;62.09
50268;BME280;36153;50.960;6.220;2023-08-06T00:53:26;99375.53;;;19.87;62.15
50268;BME280;36153;50.960;6.220;2023-08-06T00:56:27;99375.59;;;19.85;62.11
50268;BME280;36153;50.960;6.220;2023-08-06T00:59:28;99376.03;;;19.95;62.29
50268;BME280;36153;50.960;6.220;2023-08-06T01:02:29;99384.88;;;19.94;62.12
50268;BME280;36153;50.960;6.220;2023-08-06T01:05:30;99383.88;;;19.97;61.90
50268;BME280;36153;50.960;6.220;2023-08-06T01:08:58;99382.97;;;19.98;62.04
50268;BME280;36153;50.960;6.220;2023-08-06T01:15:33;99375.97;;;19.97;61.81
50268;BME280;36153;50.960;6.220;2023-08-06T01:18:35;99380.47;;;19.94;61.51
50268;BME280;36153;50.960;6.220;2023-08-06T01:21:37;99379.66;;;19.92;61.54
50268;BME280;36153;50.960;6.220;2023-08-06T01:24:37;99382.44;;;19.89;61.16
50268;BME280;36153;50.960;6.220;2023-08-06T01:30:48;99371.88;;;19.89;61.31
50268;BME280;36153;50.960;6.220;2023-08-06T01:33:50;99366.00;;;19.83;61.08
50268;BME280;36153;50.960;6.220;2023-08-06T01:36:52;99367.19;;;19.75;60.95
50268;BME280;36153;50.960;6.220;2023-08-06T01:39:52;99360.72;;;19.62;61.26
50268;BME280;36153;50.960;6.220;2023-08-06T01:42:52;99359.88;;;19.61;61.42
50268;BME280;36153;50.960;6.220;2023-08-06T01:45:53;99362.44;;;19.63;61.38
50268;BME280;36153;50.960;6.220;2023-08-06T01:48:53;99365.22;;;19.60;61.28
50268;BME280;36153;50.960;6.220;2023-08-06T01:51:53;99355.31;;;19.65;61.50
50268;BME280;36153;50.960;6.220;2023-08-06T01:54:54;99358.53;;;19.72;61.24
50268;BME280;36153;50.960;6.220;2023-08-06T01:57:55;99368.91;;;19.76;61.07
50268;BME280;36153;50.960;6.220;2023-08-06T02:00:55;99357.34;;;19.79;61.06
50268;BME280;36153;50.960;6.220;2023-08-06T02:03:55;99353.66;;;19.83;61.06
50268;BME280;36153;50.960;6.220;2023-08-06T02:06:56;99354.69;;;19.81;61.28
50268;BME280;36153;50.960;6.220;2023-08-06T02:09:56;99356.19;;;19.86;61.32
50268;BME280;36153;50.960;6.220;2023-08-06T02:12:56;99354.16;;;19.91;61.73
50268;BME280;36153;50.960;6.220;2023-08-06T02:15:57;99358.28;;;19.99;61.59
50268;BME280;36153;50.960;6.220;2023-08-06T02:18:57;99354.31;;;19.88;61.49
50268;BME280;36153;50.960;6.220;2023-08-06T02:21:57;99348.13;;;19.89;61.64
50268;BME280;36153;50.960;6.220;2023-08-06T02:24:58;99345.00;;;20.00;61.44
50268;BME280;36153;50.960;6.220;2023-08-06T02:27:58;99339.41;;;20.06;61.34
50268;BME280;36153;50.960;6.220;2023-08-06T02:30:59;99339.34;;;20.08;61.20
50268;BME280;36153;50.960;6.220;2023-08-06T02:33:59;99332.22;;;20.10;60.84
50268;BME280;36153;50.960;6.220;2023-08-06T02:36:59;99328.63;;;20.11;61.00
50268;BME280;36153;50.960;6.220;2023-08-06T02:40:00;99322.41;;;20.12;61.07
50268;BME280;36153;50.960;6.220;2023-08-06T02:43:00;99318.63;;;20.18;60.85
50268;BME280;36153;50.960;6.220;2023-08-06T02:46:00;99320.28;;;20.20;60.53
50268;BME280;36153;50.960;6.220;2023-08-06T02:49:01;99311.69;;;20.15;60.64
50268;BME280;36153;50.960;6.220;2023-08-06T02:52:01;99311.94;;;20.10;60.86
50268;BME280;36153;50.960;6.220;2023-08-06T02:55:02;99315.06;;;20.19;60.67
50268;BME280;36153;50.960;6.220;2023-08-06T02:58:02;99311.09;;;20.10;60.65
50268;BME280;36153;50.960;6.220;2023-08-06T03:01:05;99310.72;;;19.99;60.89
50268;BME280;36153;50.960;6.220;2023-08-06T03:04:05;99318.00;;;19.93;60.91
50268;BME280;36153;50.960;6.220;2023-08-06T03:07:06;99310.56;;;20.02;61.15
50268;BME280;36153;50.960;6.220;2023-08-06T03:10:06;99313.50;;;19.95;61.18
50268;BME280;36153;50.960;6.220;2023-08-06T03:13:07;99305.72;;;19.92;61.85
50268;BME280;36153;50.960;6.220;2023-08-06T03:16:07;99302.41;;;19.87;62.38
50268;BME280;36153;50.960;6.220;2023-08-06T03:19:07;99306.09;;;19.85;62.54
50268;BME280;36153;50.960;6.220;2023-08-06T03:22:08;99300.84;;;19.83;63.19
50268;BME280;36153;50.960;6.220;2023-08-06T03:25:08;99297.03;;;19.90;63.27
50268;BME280;36153;50.960;6.220;2023-08-06T03:28:08;99291.75;;;19.90;63.22
50268;BME280;36153;50.960;6.220;2023-08-06T03:31:09;99299.28;;;19.98;63.24
50268;BME280;36153;50.960;6.220;2023-08-06T03:34:09;99295.00;;;19.95;63.22
50268;BME280;36153;50.960;6.220;2023-08-06T03:37:09;99293.22;;;19.96;63.27
50268;BME280;36153;50.960;6.220;2023-08-06T03:40:10;99293.22;;;19.96;63.30
50268;BME280;36153;50.960;6.220;2023-08-06T03:43:10;99293.50;;;19.90;63.30
50268;BME280;36153;50.960;6.220;2023-08-06T03:46:11;99285.50;;;19.91;63.64
50268;BME280;36153;50.960;6.220;2023-08-06T03:49:11;99287.56;;;20.04;63.30
50268;BME280;36153;50.960;6.220;2023-08-06T03:52:11;99285.28;;;20.15;62.86
50268;BME280;36153;50.960;6.220;2023-08-06T03:55:12;99285.00;;;20.02;63.19
50268;BME280;36153;50.960;6.220;2023-08-06T03:58:12;99284.31;;;19.99;63.19
50268;BME280;36153;50.960;6.220;2023-08-06T04:01:12;99293.16;;;19.98;63.30
50268;BME280;36153;50.960;6.220;2023-08-06T04:04:13;99294.72;;;20.02;63.19
50268;BME280;36153;50.960;6.220;2023-08-06T04:07:13;99294.59;;;20.05;63.18
50268;BME280;36153;50.960;6.220;2023-08-06T04:10:13;99298.88;;;20.07;63.03
50268;BME280;36153;50.960;6.220;2023-08-06T04:13:14;99287.38;;;20.08;63.19
50268;BME280;36153;50.960;6.220;2023-08-06T04:16:14;99300.59;;;20.08;63.04
50268;BME280;36153;50.960;6.220;2023-08-06T04:19:15;99290.78;;;20.10;63.23
50268;BME280;36153;50.960;6.220;2023-08-06T04:22:15;99294.44;;;20.08;63.30
50268;BME280;36153;50.960;6.220;2023-08-06T04:25:16;99297.06;;;20.08;63.21
50268;BME280;36153;50.960;6.220;2023-08-06T04:28:21;99300.78;;;20.04;63.40
50268;BME280;36153;50.960;6.220;2023-08-06T04:31:21;99298.88;;;20.07;63.29
50268;BME280;36153;50.960;6.220;2023-08-06T04:34:22;99297.72;;;20.13;63.65
50268;BME280;36153;50.960;6.220;2023-08-06T04:37:22;99300.22;;;20.16;63.77
50268;BME280;36153;50.960;6.220;2023-08-06T04:40:22;99304.72;;;20.14;64.04
50268;BME280;36153;50.960;6.220;2023-08-06T04:43:23;99299.47;;;20.32;63.82
50268;BME280;36153;50.960;6.220;2023-08-06T04:46:24;99301.97;;;20.35;63.54
50268;BME280;36153;50.960;6.220;2023-08-06T04:49:25;99297.41;;;20.38;63.62
50268;BME280;36153;50.960;6.220;2023-08-06T04:52:25;99298.63;;;20.31;63.75
50268;BME280;36153;50.960;6.220;2023-08-06T04:55:28;99298.41;;;20.36;63.61
50268;BME280;36153;50.960;6.220;2023-08-06T04:58:28;99306.41;;;20.34;63.50
50268;BME280;36153;50.960;6.220;2023-08-06T05:01:29;99297.91;;;20.27;63.90
50268;BME280;36153;50.960;6.220;2023-08-06T05:04:29;99301.34;;;20.29;64.20
50268;BME280;36153;50.960;6.220;2023-08-06T05:07:29;99304.84;;;20.30;64.54
50268;BME280;36153;50.960;6.220;2023-08-06T05:10:30;99309.56;;;20.23;64.35
50268;BME280;36153;50.960;6.220;2023-08-06T05:13:30;99310.63;;;20.19;64.37
50268;BME280;36153;50.960;6.220;2023-08-06T05:16:30;99307.84;;;20.22;64.51
50268;BME280;36153;50.960;6.220;2023-08-06T05:19:31;99311.44;;;20.21;64.24
50268;BME280;36153;50.960;6.220;2023-08-06T05:22:31;99313.63;;;20.31;64.23
50268;BME280;36153;50.960;6.220;2023-08-06T05:25:34;99317.22;;;20.29;64.33
50268;BME280;36153;50.960;6.220;2023-08-06T05:28:34;99317.81;;;20.35;64.20
50268;BME280;36153;50.960;6.220;2023-08-06T05:31:35;99321.25;;;20.37;64.09
50268;BME280;36153;50.960;6.220;2023-08-06T05:34:35;99326.84;;;20.31;63.97
50268;BME280;36153;50.960;6.220;2023-08-06T05:37:35;99321.25;;;20.37;63.68
50268;BME280;36153;50.960;6.220;2023-08-06T05:40:36;99325.41;;;20.23;63.62
50268;BME280;36153;50.960;6.220;2023-08-06T05:43:36;99326.78;;;19.94;64.20
50268;BME280;36153;50.960;6.220;2023-08-06T05:46:36;99334.84;;;19.91;64.95
50268;BME280;36153;50.960;6.220;2023-08-06T05:49:37;99338.31;;;19.91;64.90
50268;BME280;36153;50.960;6.220;2023-08-06T05:52:37;99339.53;;;19.84;64.94
50268;BME280;36153;50.960;6.220;2023-08-06T05:55:38;99340.97;;;19.91;65.38
50268;BME280;36153;50.960;6.220;2023-08-06T05:58:39;99343.41;;;19.96;65.52
50268;BME280;36153;50.960;6.220;2023-08-06T06:01:39;99339.38;;;19.87;65.50
50268;BME280;36153;50.960;6.220;2023-08-06T06:04:40;99339.53;;;19.84;65.89
50268;BME280;36153;50.960;6.220;2023-08-06T06:07:41;99346.53;;;19.85;65.91
50268;BME280;36153;50.960;6.220;2023-08-06T06:10:41;99352.59;;;19.87;65.66
50268;BME280;36153;50.960;6.220;2023-08-06T06:13:41;99357.25;;;19.82;65.72
50268;BME280;36153;50.960;6.220;2023-08-06T06:16:42;99358.16;;;19.81;65.99
50268;BME280;36153;50.960;6.220;2023-08-06T06:19:42;99359.88;;;19.82;66.18
50268;BME280;36153;50.960;6.220;2023-08-06T06:22:42;99363.56;;;19.99;65.76
50268;BME280;36153;50.960;6.220;2023-08-06T06:25:48;99364.47;;;19.77;66.47
50268;BME280;36153;50.960;6.220;2023-08-06T06:28:49;99374.59;;;19.88;66.40
50268;BME280;36153;50.960;6.220;2023-08-06T06:31:49;99384.53;;;20.02;66.47
50268;BME280;36153;50.960;6.220;2023-08-06T06:34:50;99391.41;;;20.06;66.54
50268;BME280;36153;50.960;6.220;2023-08-06T06:37:50;99391.66;;;20.00;65.65
50268;BME280;36153;50.960;6.220;2023-08-06T06:40:55;99397.09;;;19.97;66.29
50268;BME280;36153;50.960;6.220;2023-08-06T06:43:55;99401.81;;;20.09;66.02
50268;BME280;36153;50.960;6.220;2023-08-06T06:46:56;99401.66;;;20.12;65.26
50268;BME280;36153;50.960;6.220;2023-08-06T06:49:56;99402.31;;;20.17;65.53
50268;BME280;36153;50.960;6.220;2023-08-06T06:52:56;99402.19;;;20.20;64.35
50268;BME280;36153;50.960;6.220;2023-08-06T06:56:04;99401.63;;;20.33;65.08
50268;BME280;36153;50.960;6.220;2023-08-06T06:59:05;99406.50;;;20.42;64.72
50268;BME280;36153;50.960;6.220;2023-08-06T07:02:05;99413.84;;;20.54;64.54
50268;BME280;36153;50.960;6.220;2023-08-06T07:05:05;99407.63;;;20.36;64.53
50268;BME280;36153;50.960;6.220;2023-08-06T07:08:07;99418.31;;;20.33;64.48
50268;BME280;36153;50.960;6.220;2023-08-06T07:11:07;99409.69;;;20.49;64.62
50268;BME280;36153;50.960;6.220;2023-08-06T07:14:08;99420.81;;;20.55;64.74
50268;BME280;36153;50.960;6.220;2023-08-06T07:17:08;99417.19;;;20.77;64.80
50268;BME280;36153;50.960;6.220;2023-08-06T07:20:09;99425.97;;;20.96;64.14
50268;BME280;36153;50.960;6.220;2023-08-06T07:23:09;99422.88;;;21.06;64.05
50268;BME280;36153;50.960;6.220;2023-08-06T07:26:09;99425.19;;;21.12;64.08
50268;BME280;36153;50.960;6.220;2023-08-06T07:29:10;99433.38;;;21.07;63.99
50268;BME280;36153;50.960;6.220;2023-08-06T07:32:10;99435.94;;;21.09;63.87
50268;BME280;36153;50.960;6.220;2023-08-06T07:35:10;99436.69;;;20.93;63.82
50268;BME280;36153;50.960;6.220;2023-08-06T07:38:15;99448.56;;;20.66;64.40
50268;BME280;36153;50.960;6.220;2023-08-06T07:41:16;99448.69;;;20.43;65.16
50268;BME280;36153;50.960;6.220;2023-08-06T07:44:16;99444.59;;;20.17;65.52
50268;BME280;36153;50.960;6.220;2023-08-06T07:47:16;99467.41;;;19.99;66.91
50268;BME280;36153;50.960;6.220;2023-08-06T07:50:17;99456.91;;;19.98;67.11
50268;BME280;36153;50.960;6.220;2023-08-06T07:53:17;99456.81;;;20.20;66.62
50268;BME280;36153;50.960;6.220;2023-08-06T07:56:17;99456.97;;;20.17;66.15
50268;BME280;36153;50.960;6.220;2023-08-06T07:59:18;99460.22;;;20.03;66.12
50268;BME280;36153;50.960;6.220;2023-08-06T08:02:19;99460.88;;;19.87;67.03
50268;BME280;36153;50.960;6.220;2023-08-06T08:05:20;99462.75;;;19.85;67.32
50268;BME280;36153;50.960;6.220;2023-08-06T08:08:20;99461.41;;;19.75;67.13
50268;BME280;36153;50.960;6.220;2023-08-06T08:11:20;99460.06;;;19.65;66.89
50268;BME280;36153;50.960;6.220;2023-08-06T08:14:21;99464.75;;;19.58;67.16
50268;BME280;36153;50.960;6.220;2023-08-06T08:17:21;99483.00;;;19.42;67.19
50268;BME280;36153;50.960;6.220;2023-08-06T08:20:22;99493.72;;;19.17;68.47
50268;BME280;36153;50.960;6.220;2023-08-06T08:23:23;99507.50;;;19.01;69.02
50268;BME280;36153;50.960;6.220;2023-08-06T08:26:24;99513.13;;;18.92;68.63
50268;BME280;36153;50.960;6.220;2023-08-06T08:29:24;99526.00;;;18.76;68.80
50268;BME280;36153;50.960;6.220;2023-08-06T08:32:25;99539.75;;;18.84;68.58
50268;BME280;36153;50.960;6.220;2023-08-06T08:35:25;99545.53;;;18.96;68.47
50268;BME280;36153;50.960;6.220;2023-08-06T08:38:26;99539.88;;;19.05;67.89
50268;BME280;36153;50.960;6.220;2023-08-06T08:41:29;99557.69;;;18.74;67.83
50268;BME280;36153;50.960;6.220;2023-08-06T08:44:31;99568.41;;;18.46;69.21
50268;BME280;36153;50.960;6.220;2023-08-06T08:47:32;99569.84;;;18.30;69.29
50268;BME280;36153;50.960;6.220;2023-08-06T08:50:33;99574.56;;;17.95;70.28
50268;BME280;36153;50.960;6.220;2023-08-06T08:53:35;99576.38;;;18.19;69.47
50268;BME280;36153;50.960;6.220;2023-08-06T08:56:38;99580.81;;;17.90;70.17
50268;BME280;36153;50.960;6.220;2023-08-06T08:59:38;99585.72;;;18.03;70.04
50268;BME280;36153;50.960;6.220;2023-08-06T09:02:39;99586.50;;;17.78;70.67
50268;BME280;36153;50.960;6.220;2023-08-06T09:05:45;99599.50;;;17.83;70.20
50268;BME280;36153;50.960;6.220;2023-08-06T09:09:06;99607.22;;;17.89;71.01
50268;BME280;36153;50.960;6.220;2023-08-06T09:12:13;99601.09;;;17.88;70.22
50268;BME280;36153;50.960;6.220;2023-08-06T09:15:14;99613.31;;;17.89;70.39
50268;BME280;36153;50.960;6.220;2023-08-06T09:18:14;99618.84;;;17.82;70.55
50268;BME280;36153;50.960;6.220;2023-08-06T09:21:15;99620.47;;;17.86;70.38
50268;BME280;36153;50.960;6.220;2023-08-06T09:24:18;99629.78;;;17.69;70.68
50268;BME280;36153;50.960;6.220;2023-08-06T09:27:19;99634.09;;;17.72;70.34
50268;BME280;36153;50.960;6.220;2023-08-06T09:30:30;99640.75;;;17.82;70.79
50268;BME280;36153;50.960;6.220;2023-08-06T09:33:36;99653.31;;;17.74;70.37
50268;BME280;36153;50.960;6.220;2023-08-06T09:36:40;99656.56;;;17.82;69.98
50268;BME280;36153;50.960;6.220;2023-08-06T09:39:40;99654.69;;;17.86;70.15
50268;BME280;36153;50.960;6.220;2023-08-06T09:42:42;99654.81;;;17.81;70.16
50268;BME280;36153;50.960;6.220;2023-08-06T09:45:43;99670.56;;;17.84;69.83
50268;BME280;36153;50.960;6.220;2023-08-06T09:48:48;99676.09;;;18.03;69.77
50268;BME280;36153;50.960;6.220;2023-08-06T09:51:51;99682.88;;;18.11;69.15
50268;BME280;36153;50.960;6.220;2023-08-06T09:54:53;99682.56;;;18.47;68.59
50268;BME280;36153;50.960;6.220;2023-08-06T09:57:55;99680.63;;;18.27;68.32
50268;BME280;36153;50.960;6.220;2023-08-06T10:00:55;99691.13;;;18.53;67.74
50268;BME280;36153;50.960;6.220;2023-08-06T10:03:57;99700.75;;;18.54;67.59
50268;BME280;36153;50.960;6.220;2023-08-06T10:06:59;99705.31;;;18.49;67.66
50268;BME280;36153;50.960;6.220;2023-08-06T10:09:59;99717.88;;;18.41;67.81
50268;BME280;36153;50.960;6.220;2023-08-06T10:13:01;99713.94;;;18.54;67.26
50268;BME280;36153;50.960;6.220;2023-08-06T10:16:03;99732.34;;;18.56;67.14
50268;BME280;36153;50.960;6.220;2023-08-06T10:19:05;99724.19;;;18.64;66.97
50268;BME280;36153;50.960;6.220;2023-08-06T10:22:14;99719.66;;;18.67;67.12
50268;BME280;36153;50.960;6.220;2023-08-06T10:25:18;99719.94;;;18.85;65.80
50268;BME280;36153;50.960;6.220;2023-08-06T10:28:18;99726.25;;;19.06;65.49
50268;BME280;36153;50.960;6.220;2023-08-06T10:31:19;99735.91;;;19.54;64.45
50268;BME280;36153;50.960;6.220;2023-08-06T10:34:20;99725.44;;;19.75;64.46
50268;BME280;36153;50.960;6.220;2023-08-06T10:37:20;99740.34;;;19.76;63.95
50268;BME280;36153;50.960;6.220;2023-08-06T10:40:21;99732.97;;;19.86;64.05
50268;BME280;36153;50.960;6.220;2023-08-06T10:43:33;99741.69;;;19.64;64.67
50268;BME280;36153;50.960;6.220;2023-08-06T10:46:34;99747.97;;;19.85;63.62
50268;BME280;36153;50.960;6.220;2023-08-06T10:49:34;99753.94;;;19.67;63.99
50268;BME280;36153;50.960;6.220;2023-08-06T10:52:35;99756.78;;;19.37;64.76
50268;BME280;36153;50.960;6.220;2023-08-06T10:55:35;99759.66;;;19.54;65.19
50268;BME280;36153;50.960;6.220;2023-08-06T10:58:35;99751.34;;;20.11;63.97
50268;BME280;36153;50.960;6.220;2023-08-06T11:01:36;99751.56;;;19.83;64.02
50268;BME280;36153;50.960;6.220;2023-08-06T11:04:36;99752.25;;;19.88;63.77
50268;BME280;36153;50.960;6.220;2023-08-06T11:07:37;99752.66;;;19.53;64.84
50268;BME280;36153;50.960;6.220;2023-08-06T11:10:37;99759.31;;;19.64;64.73
50268;BME280;36153;50.960;6.220;2023-08-06T11:13:38;99758.72;;;19.79;64.93
50268;BME280;36153;50.960;6.220;2023-08-06T11:16:38;99752.16;;;20.13;63.24
50268;BME280;36153;50.960;6.220;2023-08-06T11:19:41;99757.47;;;19.89;64.28
50268;BME280;36153;50.960;6.220;2023-08-06T11:22:41;99766.03;;;19.96;63.36
50268;BME280;36153;50.960;6.220;2023-08-06T11:25:45;99765.72;;;20.04;63.22
50268;BME280;36153;50.960;6.220;2023-08-06T11:28:46;99753.81;;;20.38;62.97
50268;BME280;36153;50.960;6.220;2023-08-06T11:31:46;99755.41;;;20.62;62.07
50268;BME280;36153;50.960;6.220;2023-08-06T11:34:46;99754.44;;;20.43;62.44
50268;BME280;36153;50.960;6.220;2023-08-06T11:37:47;99760.28;;;20.73;61.22
50268;BME280;36153;50.960;6.220;2023-08-06T11:40:47;99758.41;;;20.33;62.15
50268;BME280;36153;50.960;6.220;2023-08-06T11:43:48;99756.47;;;20.58;61.80
50268;BME280;36153;50.960;6.220;2023-08-06T11:46:52;99766.19;;;21.01;60.58
50268;BME280;36153;50.960;6.220;2023-08-06T11:49:53;99764.06;;;21.09;59.64
50268;BME280;36153;50.960;6.220;2023-08-06T11:52:59;99766.72;;;21.09;59.92
50268;BME280;36153;50.960;6.220;2023-08-06T11:56:00;99775.22;;;20.74;60.25
50268;BME280;36153;50.960;6.220;2023-08-06T11:59:01;99778.06;;;20.70;60.62
50268;BME280;36153;50.960;6.220;2023-08-06T12:02:03;99782.06;;;21.01;60.71
50268;BME280;36153;50.960;6.220;2023-08-06T12:08:15;99773.84;;;20.86;60.88
50268;BME280;36153;50.960;6.220;2023-08-06T12:11:15;99790.53;;;20.66;60.93
50268;BME280;36153;50.960;6.220;2023-08-06T12:14:15;99789.84;;;20.83;61.46
50268;BME280;36153;50.960;6.220;2023-08-06T12:17:16;99792.84;;;20.96;59.79
50268;BME280;36153;50.960;6.220;2023-08-06T12:20:17;99790.84;;;21.01;60.77
50268;BME280;36153;50.960;6.220;2023-08-06T12:23:17;99784.41;;;21.27;60.94
50268;BME280;36153;50.960;6.220;2023-08-06T12:26:18;99798.34;;;20.69;61.37
50268;BME280;36153;50.960;6.220;2023-08-06T12:29:18;99798.03;;;21.18;61.37
50268;BME280;36153;50.960;6.220;2023-08-06T12:32:19;99804.59;;;21.30;60.62
50268;BME280;36153;50.960;6.220;2023-08-06T12:35:19;99799.59;;;21.43;59.95
50268;BME280;36153;50.960;6.220;2023-08-06T12:38:21;99806.78;;;21.20;60.28
50268;BME280;36153;50.960;6.220;2023-08-06T12:41:21;99808.59;;;21.20;60.93
50268;BME280;36153;50.960;6.220;2023-08-06T12:44:21;99806.66;;;21.03;61.57
50268;BME280;36153;50.960;6.220;2023-08-06T12:47:23;99824.38;;;20.80;61.64
50268;BME280;36153;50.960;6.220;2023-08-06T12:50:24;99800.69;;;21.18;61.99
50268;BME280;36153;50.960;6.220;2023-08-06T12:54:06;99809.69;;;21.35;59.60
50268;BME280;36153;50.960;6.220;2023-08-06T12:57:12;99820.56;;;21.28;60.39
50268;BME280;36153;50.960;6.220;2023-08-06T13:00:16;99819.44;;;21.55;59.02
50268;BME280;36153;50.960;6.220;2023-08-06T13:03:17;99833.50;;;21.14;59.89
50268;BME280;36153;50.960;6.220;2023-08-06T13:06:20;99848.31;;;20.77;60.77
50268;BME280;36153;50.960;6.220;2023-08-06T13:09:21;99843.00;;;20.33;61.52
50268;BME280;36153;50.960;6.220;2023-08-06T13:12:21;99849.84;;;20.15;61.63
50268;BME280;36153;50.960;6.220;2023-08-06T13:15:32;99854.44;;;19.86;61.77
50268;BME280;36153;50.960;6.220;2023-08-06T13:18:33;99860.22;;;20.19;61.35
50268;BME280;36153;50.960;6.220;2023-08-06T13:25:02;99853.56;;;20.33;60.44
50268;BME280;36153;50.960;6.220;2023-08-06T13:28:13;99855.47;;;20.51;59.91
50268;BME280;36153;50.960;6.220;2023-08-06T13:31:16;99872.00;;;20.56;60.14
50268;BME280;36153;50.960;6.220;2023-08-06T13:34:16;99866.22;;;20.24;61.55
50268;BME280;36153;50.960;6.220;2023-08-06T13:37:17;99872.88;;;20.57;60.56
50268;BME280;36153;50.960;6.220;2023-08-06T13:40:17;99861.50;;;20.55;60.55
50268;BME280;36153;50.960;6.220;2023-08-06T13:43:18;99867.59;;;20.79;59.65
50268;BME280;36153;50.960;6.220;2023-08-06T13:46:19;99868.06;;;20.67;60.17
50268;BME280;36153;50.960;6.220;2023-08-06T13:49:20;99865.69;;;20.60;60.73
50268;BME280;36153;50.960;6.220;2023-08-06T13:52:20;99874.22;;;20.67;60.44
50268;BME280;36153;50.960;6.220;2023-08-06T13:55:21;99876.94;;;20.66;60.87
50268;BME280;36153;50.960;6.220;2023-08-06T13:58:22;99866.03;;;20.51;60.85
50268;BME280;36153;50.960;6.220;2023-08-06T14:01:24;99873.97;;;20.51;61.39
50268;BME280;36153;50.960;6.220;2023-08-06T14:04:25;99904.38;;;20.17;62.05
50268;BME280;36153;50.960;6.220;2023-08-06T14:07:25;99888.28;;;20.00;62.57
50268;BME280;36153;50.960;6.220;2023-08-06T14:10:26;99889.53;;;20.13;62.60
50268;BME280;36153;50.960;6.220;2023-08-06T14:13:26;99893.44;;;20.49;61.85
50268;BME280;36153;50.960;6.220;2023-08-06T14:16:26;99882.19;;;20.21;62.31
50268;BME280;36153;50.960;6.220;2023-08-06T14:19:27;99888.75;;;20.79;61.55
50268;BME280;36153;50.960;6.220;2023-08-06T14:22:28;99893.22;;;20.55;61.43
50268;BME280;36153;50.960;6.220;2023-08-06T14:25:31;99893.34;;;20.52;61.95
50268;BME280;36153;50.960;6.220;2023-08-06T14:28:32;99897.69;;;20.53;62.17
50268;BME280;36153;50.960;6.220;2023-08-06T14:31:32;99907.78;;;20.43;62.05
50268;BME280;36153;50.960;6.220;2023-08-06T14:34:32;99913.31;;;20.37;62.61
50268;BME280;36153;50.960;6.220;2023-08-06T14:37:33;99907.31;;;20.55;63.55
50268;BME280;36153;50.960;6.220;2023-08-06T14:40:33;99915.91;;;20.60;61.46
50268;BME280;36153;50.960;6.220;2023-08-06T14:43:38;99910.88;;;20.54;62.21
50268;BME280;36153;50.960;6.220;2023-08-06T14:46:38;99904.25;;;20.66;62.22
50268;BME280;36153;50.960;6.220;2023-08-06T14:49:39;99909.16;;;20.53;62.39
50268;BME280;36153;50.960;6.220;2023-08-06T14:52:39;99914.31;;;20.56;62.46
50268;BME280;36153;50.960;6.220;2023-08-06T14:55:39;99915.22;;;20.55;62.35
50268;BME280;36153;50.960;6.220;2023-08-06T14:58:42;99917.06;;;20.31;62.87
50268;BME280;36153;50.960;6.220;2023-08-06T15:01:42;99923.50;;;20.24;62.82
50268;BME280;36153;50.960;6.220;2023-08-06T15:04:46;99936.78;;;20.44;62.25
50268;BME280;36153;50.960;6.220;2023-08-06T15:07:47;99939.00;;;20.79;62.23
50268;BME280;36153;50.960;6.220;2023-08-06T15:10:53;99938.47;;;20.71;61.85
50268;BME280;36153;50.960;6.220;2023-08-06T15:13:54;99943.34;;;20.58;61.82
50268;BME280;36153;50.960;6.220;2023-08-06T15:16:54;99938.06;;;20.58;62.12
50268;BME280;36153;50.960;6.220;2023-08-06T15:19:57;99944.09;;;20.61;62.07
50268;BME280;36153;50.960;6.220;2023-08-06T15:22:58;99942.38;;;20.37;61.86
50268;BME280;36153;50.960;6.220;2023-08-06T15:25:58;99952.44;;;20.51;62.11
50268;BME280;36153;50.960;6.220;2023-08-06T15:28:59;99955.81;;;20.07;63.06
50268;BME280;36153;50.960;6.220;2023-08-06T15:32:00;99957.41;;;20.36;62.37
50268;BME280;36153;50.960;6.220;2023-08-06T15:35:00;99959.84;;;20.41;61.65
50268;BME280;36153;50.960;6.220;2023-08-06T15:38:01;99958.22;;;20.60;61.87
50268;BME280;36153;50.960;6.220;2023-08-06T15:41:02;99965.31;;;20.84;60.75
50268;BME280;36153;50.960;6.220;2023-08-06T15:44:02;99971.50;;;20.59;61.51
50268;BME280;36153;50.960;6.220;2023-08-06T15:47:03;99968.19;;;20.54;61.23
50268;BME280;36153;50.960;6.220;2023-08-06T15:50:03;99972.38;;;20.59;60.96
50268;BME280;36153;50.960;6.220;2023-08-06T15:53:05;99983.41;;;20.23;61.79
50268;BME280;36153;50.960;6.220;2023-08-06T15:56:06;99979.72;;;20.04;62.65
50268;BME280;36153;50.960;6.220;2023-08-06T15:59:25;99989.00;;;20.39;61.88
50268;BME280;36153;50.960;6.220;2023-08-06T16:02:27;100003.44;;;20.31;62.02
50268;BME280;36153;50.960;6.220;2023-08-06T16:05:27;99990.00;;;20.11;62.28
50268;BME280;36153;50.960;6.220;2023-08-06T16:08:28;99992.88;;;19.80;63.72
50268;BME280;36153;50.960;6.220;2023-08-06T16:11:29;99998.00;;;19.58;64.13
50268;BME280;36153;50.960;6.220;2023-08-06T16:14:29;99994.47;;;19.32;64.94